sensor_id;sensor_type;location;lat;lon;timestamp;temperature;humidity
56046;DHT22;41913;51.030;3.706;2023-11-19T00:02:10;20.60;87.30
56046;DHT22;41913;51.030;3.706;2023-11-19T00:04:39;20.50;87.30
56046;DHT22;41913;51.030;3.706;2023-11-19T00:07:05;20.50;87.40
56046;DHT22;41913;51.030;3.706;2023-11-19T00:09:34;20.50;87.40
56046;DHT22;41913;51.030;3.706;2023-11-19T00:12:03;20.50;87.40
56046;DHT22;41913;51.030;3.706;2023-11-19T00:14:31;20.50;87.50
56046;DHT22;41913;51.030;3.706;2023-11-19T00:16:57;20.50;87.50
56046;DHT22;41913;51.030;3.706;2023-11-19T00:19:23;20.40;87.50
56046;DHT22;41913;51.030;3.706;2023-11-19T00:21:49;20.40;87.50
56046;DHT22;41913;51.030;3.706;2023-11-19T00:24:15;20.40;87.50
56046;DHT22;41913;51.030;3.706;2023-11-19T00:26:44;20.40;87.60
56046;DHT22;41913;51.030;3.706;2023-11-19T00:29:11;20.40;87.60
56046;DHT22;41913;51.030;3.706;2023-11-19T00:31:40;20.30;87.50
56046;DHT22;41913;51.030;3.706;2023-11-19T00:34:05;20.30;87.50
56046;DHT22;41913;51.030;3.706;2023-11-19T00:36:31;20.40;87.60
56046;DHT22;41913;51.030;3.706;2023-11-19T00:38:57;20.30;87.60
56046;DHT22;41913;51.030;3.706;2023-11-19T00:41:24;20.30;87.60
56046;DHT22;41913;51.030;3.706;2023-11-19T00:43:52;20.30;87.50
56046;DHT22;41913;51.030;3.706;2023-11-19T00:46:18;20.30;87.60
56046;DHT22;41913;51.030;3.706;2023-11-19T00:48:43;20.30;87.60
56046;DHT22;41913;51.030;3.706;2023-11-19T00:51:11;20.30;87.60
56046;DHT22;41913;51.030;3.706;2023-11-19T00:53:37;20.30;87.60
56046;DHT22;41913;51.030;3.706;2023-11-19T00:56:03;20.30;87.60
56046;DHT22;41913;51.030;3.706;2023-11-19T00:58:29;20.30;87.70
56046;DHT22;41913;51.030;3.706;2023-11-19T01:00:56;20.30;87.80
56046;DHT22;41913;51.030;3.706;2023-11-19T01:03:23;20.30;87.80
56046;DHT22;41913;51.030;3.706;2023-11-19T01:05:50;20.30;87.80
56046;DHT22;41913;51.030;3.706;2023-11-19T01:08:18;20.30;87.80
56046;DHT22;41913;51.030;3.706;2023-11-19T01:10:44;20.20;87.80
56046;DHT22;41913;51.030;3.706;2023-11-19T01:13:10;20.20;87.80
56046;DHT22;41913;51.030;3.706;2023-11-19T01:15:36;20.20;88.40
56046;DHT22;41913;51.030;3.706;2023-11-19T01:18:01;20.10;87.80
56046;DHT22;41913;51.030;3.706;2023-11-19T01:20:30;20.20;87.90
56046;DHT22;41913;51.030;3.706;2023-11-19T01:22:57;20.20;88.00
56046;DHT22;41913;51.030;3.706;2023-11-19T01:25:23;20.20;88.00
56046;DHT22;41913;51.030;3.706;2023-11-19T01:27:49;20.10;87.90
56046;DHT22;41913;51.030;3.706;2023-11-19T01:30:15;20.10;87.90
56046;DHT22;41913;51.030;3.706;2023-11-19T01:32:41;20.10;88.00
56046;DHT22;41913;51.030;3.706;2023-11-19T01:35:07;20.10;88.10
56046;DHT22;41913;51.030;3.706;2023-11-19T01:37:39;20.10;88.10
56046;DHT22;41913;51.030;3.706;2023-11-19T01:40:05;20.10;88.20
56046;DHT22;41913;51.030;3.706;2023-11-19T01:42:40;20.00;88.10
56046;DHT22;41913;51.030;3.706;2023-11-19T01:45:06;20.10;88.20
56046;DHT22;41913;51.030;3.706;2023-11-19T01:47:35;20.00;88.20
56046;DHT22;41913;51.030;3.706;2023-11-19T01:50:03;20.00;88.20
56046;DHT22;41913;51.030;3.706;2023-11-19T01:52:34;20.00;88.30
56046;DHT22;41913;51.030;3.706;2023-11-19T01:55:04;20.10;88.40
56046;DHT22;41913;51.030;3.706;2023-11-19T01:57:31;20.00;88.40
56046;DHT22;41913;51.030;3.706;2023-11-19T01:59:57;20.00;88.40
56046;DHT22;41913;51.030;3.706;2023-11-19T02:02:23;20.00;88.30
56046;DHT22;41913;51.030;3.706;2023-11-19T02:04:52;20.00;88.30
56046;DHT22;41913;51.030;3.706;2023-11-19T02:07:18;20.00;88.30
56046;DHT22;41913;51.030;3.706;2023-11-19T02:09:45;20.00;88.50
56046;DHT22;41913;51.030;3.706;2023-11-19T02:12:11;19.90;88.40
56046;DHT22;41913;51.030;3.706;2023-11-19T02:14:41;19.90;88.40
56046;DHT22;41913;51.030;3.706;2023-11-19T02:17:07;19.90;88.40
56046;DHT22;41913;51.030;3.706;2023-11-19T02:19:50;19.90;88.40
56046;DHT22;41913;51.030;3.706;2023-11-19T02:22:17;19.90;88.50
56046;DHT22;41913;51.030;3.706;2023-11-19T02:24:44;19.90;88.50
56046;DHT22;41913;51.030;3.706;2023-11-19T02:30:11;19.90;88.50
56046;DHT22;41913;51.030;3.706;2023-11-19T02:32:42;19.90;88.60
56046;DHT22;41913;51.030;3.706;2023-11-19T02:35:08;19.90;88.60
56046;DHT22;41913;51.030;3.706;2023-11-19T02:37:38;19.90;88.50
56046;DHT22;41913;51.030;3.706;2023-11-19T02:40:05;19.90;88.60
56046;DHT22;41913;51.030;3.706;2023-11-19T02:42:35;19.80;88.50
56046;DHT22;41913;51.030;3.706;2023-11-19T02:45:01;19.70;88.50
56046;DHT22;41913;51.030;3.706;2023-11-19T02:47:27;19.80;88.60
56046;DHT22;41913;51.030;3.706;2023-11-19T02:49:55;19.80;88.60
56046;DHT22;41913;51.030;3.706;2023-11-19T02:52:21;19.80;88.70
56046;DHT22;41913;51.030;3.706;2023-11-19T02:54:47;19.80;89.30
56046;DHT22;41913;51.030;3.706;2023-11-19T02:57:14;19.80;88.80
56046;DHT22;41913;51.030;3.706;2023-11-19T02:59:40;19.80;88.80
56046;DHT22;41913;51.030;3.706;2023-11-19T03:02:08;19.80;88.70
56046;DHT22;41913;51.030;3.706;2023-11-19T03:04:38;19.70;88.70
56046;DHT22;41913;51.030;3.706;2023-11-19T03:07:06;19.80;88.80
56046;DHT22;41913;51.030;3.706;2023-11-19T03:09:33;19.70;88.70
56046;DHT22;41913;51.030;3.706;2023-11-19T03:12:01;19.70;88.80
56046;DHT22;41913;51.030;3.706;2023-11-19T03:14:27;19.70;88.80
56046;DHT22;41913;51.030;3.706;2023-11-19T03:16:53;19.70;88.80
56046;DHT22;41913;51.030;3.706;2023-11-19T03:19:19;19.70;88.80
56046;DHT22;41913;51.030;3.706;2023-11-19T03:21:45;19.70;88.80
56046;DHT22;41913;51.030;3.706;2023-11-19T03:24:14;19.70;88.90
56046;DHT22;41913;51.030;3.706;2023-11-19T03:26:41;19.70;89.00
56046;DHT22;41913;51.030;3.706;2023-11-19T03:29:08;19.70;88.90
56046;DHT22;41913;51.030;3.706;2023-11-19T03:31:34;19.70;88.80
56046;DHT22;41913;51.030;3.706;2023-11-19T03:33:59;19.70;88.80
56046;DHT22;41913;51.030;3.706;2023-11-19T03:36:31;19.70;88.80
56046;DHT22;41913;51.030;3.706;2023-11-19T03:38:58;19.70;88.80
56046;DHT22;41913;51.030;3.706;2023-11-19T03:41:23;19.60;88.70
56046;DHT22;41913;51.030;3.706;2023-11-19T03:43:49;19.60;88.80
56046;DHT22;41913;51.030;3.706;2023-11-19T03:46:21;19.60;88.70
56046;DHT22;41913;51.030;3.706;2023-11-19T03:48:50;19.60;88.70
56046;DHT22;41913;51.030;3.706;2023-11-19T03:51:16;19.60;88.80
56046;DHT22;41913;51.030;3.706;2023-11-19T03:53:46;19.60;88.70
56046;DHT22;41913;51.030;3.706;2023-11-19T03:56:13;19.60;88.80
56046;DHT22;41913;51.030;3.706;2023-11-19T03:58:39;19.60;88.70
56046;DHT22;41913;51.030;3.706;2023-11-19T04:01:05;19.60;88.70
56046;DHT22;41913;51.030;3.706;2023-11-19T04:03:31;19.60;88.80
56046;DHT22;41913;51.030;3.706;2023-11-19T04:05:59;19.60;88.70
56046;DHT22;41913;51.030;3.706;2023-11-19T04:08:25;19.60;88.80
56046;DHT22;41913;51.030;3.706;2023-11-19T04:10:51;19.60;88.90
56046;DHT22;41913;51.030;3.706;2023-11-19T04:13:17;19.60;88.80
56046;DHT22;41913;51.030;3.706;2023-11-19T04:15:44;19.60;88.70
56046;DHT22;41913;51.030;3.706;2023-11-19T04:18:10;19.60;88.80
56046;DHT22;41913;51.030;3.706;2023-11-19T04:20:35;19.60;88.80
56046;DHT22;41913;51.030;3.706;2023-11-19T04:23:02;19.60;88.70
56046;DHT22;41913;51.030;3.706;2023-11-19T04:25:28;19.60;88.70
56046;DHT22;41913;51.030;3.706;2023-11-19T04:27:55;19.60;88.80
56046;DHT22;41913;51.030;3.706;2023-11-19T04:30:20;19.50;88.90
56046;DHT22;41913;51.030;3.706;2023-11-19T04:32:47;19.50;88.90
56046;DHT22;41913;51.030;3.706;2023-11-19T04:35:14;19.50;88.90
56046;DHT22;41913;51.030;3.706;2023-11-19T04:37:43;19.50;89.00
56046;DHT22;41913;51.030;3.706;2023-11-19T04:40:10;19.50;89.00
56046;DHT22;41913;51.030;3.706;2023-11-19T04:42:37;19.50;89.00
56046;DHT22;41913;51.030;3.706;2023-11-19T04:45:06;19.50;89.10
56046;DHT22;41913;51.030;3.706;2023-11-19T04:47:33;19.50;89.00
56046;DHT22;41913;51.030;3.706;2023-11-19T04:49:59;19.50;89.00
56046;DHT22;41913;51.030;3.706;2023-11-19T04:52:25;19.50;89.00
56046;DHT22;41913;51.030;3.706;2023-11-19T04:54:52;19.50;89.00
56046;DHT22;41913;51.030;3.706;2023-11-19T04:57:18;19.50;89.00
56046;DHT22;41913;51.030;3.706;2023-11-19T04:59:43;19.50;89.10
56046;DHT22;41913;51.030;3.706;2023-11-19T05:02:10;19.50;89.10
56046;DHT22;41913;51.030;3.706;2023-11-19T05:04:36;19.40;89.10
56046;DHT22;41913;51.030;3.706;2023-11-19T05:07:03;19.50;89.30
56046;DHT22;41913;51.030;3.706;2023-11-19T05:09:29;19.40;89.20
56046;DHT22;41913;51.030;3.706;2023-11-19T05:11:56;19.40;89.20
56046;DHT22;41913;51.030;3.706;2023-11-19T05:14:22;19.50;89.20
56046;DHT22;41913;51.030;3.706;2023-11-19T05:16:50;19.40;89.20
56046;DHT22;41913;51.030;3.706;2023-11-19T05:19:15;19.40;89.30
56046;DHT22;41913;51.030;3.706;2023-11-19T05:21:50;19.40;89.40
56046;DHT22;41913;51.030;3.706;2023-11-19T05:24:18;19.40;89.30
56046;DHT22;41913;51.030;3.706;2023-11-19T05:26:43;19.40;89.30
56046;DHT22;41913;51.030;3.706;2023-11-19T05:29:11;19.40;89.30
56046;DHT22;41913;51.030;3.706;2023-11-19T05:31:37;19.40;89.30
56046;DHT22;41913;51.030;3.706;2023-11-19T05:34:03;19.40;89.30
56046;DHT22;41913;51.030;3.706;2023-11-19T05:36:29;19.40;89.30
56046;DHT22;41913;51.030;3.706;2023-11-19T05:38:55;19.40;89.30
56046;DHT22;41913;51.030;3.706;2023-11-19T05:41:21;19.40;89.30
56046;DHT22;41913;51.030;3.706;2023-11-19T05:43:46;19.40;89.30
56046;DHT22;41913;51.030;3.706;2023-11-19T05:46:12;19.40;89.30
56046;DHT22;41913;51.030;3.706;2023-11-19T05:48:39;19.40;89.30
56046;DHT22;41913;51.030;3.706;2023-11-19T05:51:05;19.40;89.30
56046;DHT22;41913;51.030;3.706;2023-11-19T05:53:31;19.40;89.80
56046;DHT22;41913;51.030;3.706;2023-11-19T05:55:57;19.40;89.30
56046;DHT22;41913;51.030;3.706;2023-11-19T05:58:24;19.40;89.30
56046;DHT22;41913;51.030;3.706;2023-11-19T06:00:57;19.40;89.30
56046;DHT22;41913;51.030;3.706;2023-11-19T06:03:23;19.40;89.30
56046;DHT22;41913;51.030;3.706;2023-11-19T06:05:49;19.40;89.20
56046;DHT22;41913;51.030;3.706;2023-11-19T06:08:16;19.40;89.30
56046;DHT22;41913;51.030;3.706;2023-11-19T06:10:43;19.40;89.30
56046;DHT22;41913;51.030;3.706;2023-11-19T06:13:12;19.30;89.20
56046;DHT22;41913;51.030;3.706;2023-11-19T06:15:38;19.30;89.20
56046;DHT22;41913;51.030;3.706;2023-11-19T06:18:04;19.30;89.20
56046;DHT22;41913;51.030;3.706;2023-11-19T06:20:30;19.30;89.20
56046;DHT22;41913;51.030;3.706;2023-11-19T06:22:57;19.30;89.20
56046;DHT22;41913;51.030;3.706;2023-11-19T06:25:23;19.30;89.20
56046;DHT22;41913;51.030;3.706;2023-11-19T06:27:51;19.30;89.20
56046;DHT22;41913;51.030;3.706;2023-11-19T06:30:17;19.30;89.20
56046;DHT22;41913;51.030;3.706;2023-11-19T06:32:43;19.30;89.20
56046;DHT22;41913;51.030;3.706;2023-11-19T06:35:08;19.30;89.20
56046;DHT22;41913;51.030;3.706;2023-11-19T06:37:36;19.30;89.20
56046;DHT22;41913;51.030;3.706;2023-11-19T06:40:02;19.30;89.20
56046;DHT22;41913;51.030;3.706;2023-11-19T06:42:30;19.30;89.20
56046;DHT22;41913;51.030;3.706;2023-11-19T06:44:56;19.30;89.30
56046;DHT22;41913;51.030;3.706;2023-11-19T06:47:27;19.30;89.30
56046;DHT22;41913;51.030;3.706;2023-11-19T06:49:53;19.30;89.30
56046;DHT22;41913;51.030;3.706;2023-11-19T06:52:19;19.30;89.30
56046;DHT22;41913;51.030;3.706;2023-11-19T06:54:47;19.30;89.30
56046;DHT22;41913;51.030;3.706;2023-11-19T06:57:15;19.30;89.30
56046;DHT22;41913;51.030;3.706;2023-11-19T06:59:42;19.30;89.80
56046;DHT22;41913;51.030;3.706;2023-11-19T07:02:08;19.20;89.20
56046;DHT22;41913;51.030;3.706;2023-11-19T07:04:36;19.30;89.20
56046;DHT22;41913;51.030;3.706;2023-11-19T07:07:02;19.20;89.20
56046;DHT22;41913;51.030;3.706;2023-11-19T07:09:28;19.30;89.20
56046;DHT22;41913;51.030;3.706;2023-11-19T07:11:55;19.20;89.20
56046;DHT22;41913;51.030;3.706;2023-11-19T07:14:25;19.20;89.30
56046;DHT22;41913;51.030;3.706;2023-11-19T07:16:51;19.20;89.20
56046;DHT22;41913;51.030;3.706;2023-11-19T07:19:19;19.20;89.20
56046;DHT22;41913;51.030;3.706;2023-11-19T07:21:44;19.20;89.20
56046;DHT22;41913;51.030;3.706;2023-11-19T07:24:11;19.20;89.10
56046;DHT22;41913;51.030;3.706;2023-11-19T07:26:45;19.20;89.20
56046;DHT22;41913;51.030;3.706;2023-11-19T07:29:11;19.20;89.20
56046;DHT22;41913;51.030;3.706;2023-11-19T07:31:36;19.20;89.20
56046;DHT22;41913;51.030;3.706;2023-11-19T07:34:06;19.20;89.10
56046;DHT22;41913;51.030;3.706;2023-11-19T07:36:36;19.20;88.90
56046;DHT22;41913;51.030;3.706;2023-11-19T07:39:04;19.20;88.70
56046;DHT22;41913;51.030;3.706;2023-11-19T07:41:30;19.20;88.20
56046;DHT22;41913;51.030;3.706;2023-11-19T07:43:56;19.20;87.60
56046;DHT22;41913;51.030;3.706;2023-11-19T07:46:22;19.30;87.30
56046;DHT22;41913;51.030;3.706;2023-11-19T07:48:48;19.30;87.00
56046;DHT22;41913;51.030;3.706;2023-11-19T07:51:15;19.30;86.70
56046;DHT22;41913;51.030;3.706;2023-11-19T07:53:43;19.40;86.60
56046;DHT22;41913;51.030;3.706;2023-11-19T07:56:09;19.50;86.60
56046;DHT22;41913;51.030;3.706;2023-11-19T07:58:36;19.50;86.40
56046;DHT22;41913;51.030;3.706;2023-11-19T08:01:03;19.60;86.40
56046;DHT22;41913;51.030;3.706;2023-11-19T08:03:29;19.60;86.50
56046;DHT22;41913;51.030;3.706;2023-11-19T08:06:00;19.80;86.50
56046;DHT22;41913;51.030;3.706;2023-11-19T08:08:27;19.80;86.40
56046;DHT22;41913;51.030;3.706;2023-11-19T08:10:56;19.90;86.40
56046;DHT22;41913;51.030;3.706;2023-11-19T08:13:23;20.00;86.40
56046;DHT22;41913;51.030;3.706;2023-11-19T08:15:50;20.00;86.30
56046;DHT22;41913;51.030;3.706;2023-11-19T08:18:17;20.10;86.20
56046;DHT22;41913;51.030;3.706;2023-11-19T08:20:44;20.20;86.20
56046;DHT22;41913;51.030;3.706;2023-11-19T08:23:18;20.30;86.10
56046;DHT22;41913;51.030;3.706;2023-11-19T08:25:51;20.30;85.80
56046;DHT22;41913;51.030;3.706;2023-11-19T08:28:17;20.40;85.70
56046;DHT22;41913;51.030;3.706;2023-11-19T08:30:43;20.50;86.50
56046;DHT22;41913;51.030;3.706;2023-11-19T08:33:10;20.50;86.20
56046;DHT22;41913;51.030;3.706;2023-11-19T08:35:37;20.60;86.40
56046;DHT22;41913;51.030;3.706;2023-11-19T08:38:02;20.60;86.30
56046;DHT22;41913;51.030;3.706;2023-11-19T08:40:28;20.60;86.40
56046;DHT22;41913;51.030;3.706;2023-11-19T08:42:56;20.70;86.50
56046;DHT22;41913;51.030;3.706;2023-11-19T08:45:22;20.70;86.50
56046;DHT22;41913;51.030;3.706;2023-11-19T08:47:48;20.70;86.40
56046;DHT22;41913;51.030;3.706;2023-11-19T08:50:13;20.70;86.30
56046;DHT22;41913;51.030;3.706;2023-11-19T08:52:39;20.70;86.30
56046;DHT22;41913;51.030;3.706;2023-11-19T08:55:06;20.80;86.20
56046;DHT22;41913;51.030;3.706;2023-11-19T08:57:35;20.80;86.10
56046;DHT22;41913;51.030;3.706;2023-11-19T09:00:02;20.90;86.10
56046;DHT22;41913;51.030;3.706;2023-11-19T09:02:33;20.90;86.10
56046;DHT22;41913;51.030;3.706;2023-11-19T09:04:59;21.00;86.00
56046;DHT22;41913;51.030;3.706;2023-11-19T09:07:26;21.00;86.00
56046;DHT22;41913;51.030;3.706;2023-11-19T09:09:51;21.10;85.90
56046;DHT22;41913;51.030;3.706;2023-11-19T09:12:18;21.10;85.90
56046;DHT22;41913;51.030;3.706;2023-11-19T09:14:45;21.10;85.80
56046;DHT22;41913;51.030;3.706;2023-11-19T09:17:11;21.10;85.70
56046;DHT22;41913;51.030;3.706;2023-11-19T09:19:37;21.10;85.70
56046;DHT22;41913;51.030;3.706;2023-11-19T09:22:06;21.10;85.60
56046;DHT22;41913;51.030;3.706;2023-11-19T09:24:31;21.10;85.60
56046;DHT22;41913;51.030;3.706;2023-11-19T09:26:57;21.20;85.60
56046;DHT22;41913;51.030;3.706;2023-11-19T09:29:23;21.20;85.40
56046;DHT22;41913;51.030;3.706;2023-11-19T09:31:49;21.30;85.50
56046;DHT22;41913;51.030;3.706;2023-11-19T09:34:15;21.30;85.60
56046;DHT22;41913;51.030;3.706;2023-11-19T09:36:42;21.30;85.60
56046;DHT22;41913;51.030;3.706;2023-11-19T09:39:10;21.40;85.70
56046;DHT22;41913;51.030;3.706;2023-11-19T09:41:36;21.40;85.70
56046;DHT22;41913;51.030;3.706;2023-11-19T09:44:03;21.50;85.70
56046;DHT22;41913;51.030;3.706;2023-11-19T09:46:30;21.50;85.50
56046;DHT22;41913;51.030;3.706;2023-11-19T09:48:57;21.50;85.50
56046;DHT22;41913;51.030;3.706;2023-11-19T09:51:24;21.60;85.30
56046;DHT22;41913;51.030;3.706;2023-11-19T09:53:50;21.60;85.80
56046;DHT22;41913;51.030;3.706;2023-11-19T09:56:16;21.60;86.10
56046;DHT22;41913;51.030;3.706;2023-11-19T09:58:43;21.60;86.50
56046;DHT22;41913;51.030;3.706;2023-11-19T10:01:09;21.70;87.40
56046;DHT22;41913;51.030;3.706;2023-11-19T10:03:37;21.80;88.20
56046;DHT22;41913;51.030;3.706;2023-11-19T10:06:09;21.80;88.70
56046;DHT22;41913;51.030;3.706;2023-11-19T10:08:41;21.90;89.60
56046;DHT22;41913;51.030;3.706;2023-11-19T10:11:08;21.90;90.20
56046;DHT22;41913;51.030;3.706;2023-11-19T10:13:36;22.00;90.50
56046;DHT22;41913;51.030;3.706;2023-11-19T10:16:15;22.00;90.60
56046;DHT22;41913;51.030;3.706;2023-11-19T10:18:46;22.10;90.60
56046;DHT22;41913;51.030;3.706;2023-11-19T10:21:13;22.10;90.70
56046;DHT22;41913;51.030;3.706;2023-11-19T10:23:53;22.10;90.80
56046;DHT22;41913;51.030;3.706;2023-11-19T10:26:20;22.10;90.80
56046;DHT22;41913;51.030;3.706;2023-11-19T10:28:47;22.10;91.00
56046;DHT22;41913;51.030;3.706;2023-11-19T10:31:19;22.10;91.20
56046;DHT22;41913;51.030;3.706;2023-11-19T10:33:51;22.10;91.10
56046;DHT22;41913;51.030;3.706;2023-11-19T10:36:17;22.10;91.30
56046;DHT22;41913;51.030;3.706;2023-11-19T10:38:53;22.10;91.10
56046;DHT22;41913;51.030;3.706;2023-11-19T10:41:31;22.00;91.00
56046;DHT22;41913;51.030;3.706;2023-11-19T10:44:07;22.00;90.90
56046;DHT22;41913;51.030;3.706;2023-11-19T10:46:42;22.00;90.80
56046;DHT22;41913;51.030;3.706;2023-11-19T10:49:09;22.00;90.70
56046;DHT22;41913;51.030;3.706;2023-11-19T10:51:45;22.00;90.70
56046;DHT22;41913;51.030;3.706;2023-11-19T10:54:13;22.00;90.70
56046;DHT22;41913;51.030;3.706;2023-11-19T10:56:43;22.00;90.70
56046;DHT22;41913;51.030;3.706;2023-11-19T10:59:14;22.00;90.80
56046;DHT22;41913;51.030;3.706;2023-11-19T11:01:44;22.00;90.80
56046;DHT22;41913;51.030;3.706;2023-11-19T11:04:14;21.90;90.70
56046;DHT22;41913;51.030;3.706;2023-11-19T11:06:43;21.90;90.70
56046;DHT22;41913;51.030;3.706;2023-11-19T11:09:11;21.90;90.60
56046;DHT22;41913;51.030;3.706;2023-11-19T11:11:41;21.90;90.50
56046;DHT22;41913;51.030;3.706;2023-11-19T11:14:14;21.90;90.50
56046;DHT22;41913;51.030;3.706;2023-11-19T11:16:43;21.90;88.60
56046;DHT22;41913;51.030;3.706;2023-11-19T11:19:11;21.80;87.20
56046;DHT22;41913;51.030;3.706;2023-11-19T11:21:40;21.70;86.20
56046;DHT22;41913;51.030;3.706;2023-11-19T11:24:39;21.70;86.40
56046;DHT22;41913;51.030;3.706;2023-11-19T11:27:28;21.60;86.20
56046;DHT22;41913;51.030;3.706;2023-11-19T11:30:25;21.60;86.90
56046;DHT22;41913;51.030;3.706;2023-11-19T11:33:13;21.60;86.70
56046;DHT22;41913;51.030;3.706;2023-11-19T11:38:36;21.50;86.70
56046;DHT22;41913;51.030;3.706;2023-11-19T11:41:24;21.40;86.60
56046;DHT22;41913;51.030;3.706;2023-11-19T11:43:53;21.40;86.20
56046;DHT22;41913;51.030;3.706;2023-11-19T11:49:02;21.40;87.50
56046;DHT22;41913;51.030;3.706;2023-11-19T11:54:26;21.40;87.40
56046;DHT22;41913;51.030;3.706;2023-11-19T11:57:03;21.40;87.30
56046;DHT22;41913;51.030;3.706;2023-11-19T11:59:49;21.30;87.20
56046;DHT22;41913;51.030;3.706;2023-11-19T12:02:18;21.30;87.20
56046;DHT22;41913;51.030;3.706;2023-11-19T12:04:51;21.30;87.20
56046;DHT22;41913;51.030;3.706;2023-11-19T12:07:22;21.20;87.00
56046;DHT22;41913;51.030;3.706;2023-11-19T12:10:12;21.20;87.20
56046;DHT22;41913;51.030;3.706;2023-11-19T12:12:37;21.20;87.30
56046;DHT22;41913;51.030;3.706;2023-11-19T12:15:08;21.20;87.30
56046;DHT22;41913;51.030;3.706;2023-11-19T12:17:41;21.20;87.20
56046;DHT22;41913;51.030;3.706;2023-11-19T12:20:10;21.20;87.20
56046;DHT22;41913;51.030;3.706;2023-11-19T12:22:41;21.20;87.20
56046;DHT22;41913;51.030;3.706;2023-11-19T12:25:09;21.10;87.00
56046;DHT22;41913;51.030;3.706;2023-11-19T12:27:36;21.10;87.00
56046;DHT22;41913;51.030;3.706;2023-11-19T12:30:05;21.10;86.90
56046;DHT22;41913;51.030;3.706;2023-11-19T12:32:38;21.10;86.80
56046;DHT22;41913;51.030;3.706;2023-11-19T12:35:04;21.10;86.70
56046;DHT22;41913;51.030;3.706;2023-11-19T12:37:30;21.10;87.00
56046;DHT22;41913;51.030;3.706;2023-11-19T12:39:57;21.10;87.10
56046;DHT22;41913;51.030;3.706;2023-11-19T12:42:39;21.10;87.60
56046;DHT22;41913;51.030;3.706;2023-11-19T12:45:05;21.10;87.50
56046;DHT22;41913;51.030;3.706;2023-11-19T12:47:31;21.10;87.50
56046;DHT22;41913;51.030;3.706;2023-11-19T12:49:57;21.10;87.60
56046;DHT22;41913;51.030;3.706;2023-11-19T12:52:23;21.10;87.60
56046;DHT22;41913;51.030;3.706;2023-11-19T12:54:49;21.10;87.70
56046;DHT22;41913;51.030;3.706;2023-11-19T12:57:15;21.10;87.70
56046;DHT22;41913;51.030;3.706;2023-11-19T12:59:41;21.00;87.60
56046;DHT22;41913;51.030;3.706;2023-11-19T13:02:14;21.00;87.50
56046;DHT22;41913;51.030;3.706;2023-11-19T13:04:40;21.00;87.50
56046;DHT22;41913;51.030;3.706;2023-11-19T13:07:07;21.00;87.50
56046;DHT22;41913;51.030;3.706;2023-11-19T13:09:33;21.00;87.30
56046;DHT22;41913;51.030;3.706;2023-11-19T13:11:59;21.00;87.30
56046;DHT22;41913;51.030;3.706;2023-11-19T13:14:36;21.00;87.20
56046;DHT22;41913;51.030;3.706;2023-11-19T13:17:03;21.00;87.20
56046;DHT22;41913;51.030;3.706;2023-11-19T13:19:31;21.00;87.20
56046;DHT22;41913;51.030;3.706;2023-11-19T13:21:56;21.00;87.10
56046;DHT22;41913;51.030;3.706;2023-11-19T13:24:22;21.00;87.20
56046;DHT22;41913;51.030;3.706;2023-11-19T13:26:48;21.00;87.10
56046;DHT22;41913;51.030;3.706;2023-11-19T13:29:14;21.00;87.20
56046;DHT22;41913;51.030;3.706;2023-11-19T13:31:40;21.00;87.60
56046;DHT22;41913;51.030;3.706;2023-11-19T13:34:06;20.90;87.00
56046;DHT22;41913;51.030;3.706;2023-11-19T13:36:33;21.00;87.10
56046;DHT22;41913;51.030;3.706;2023-11-19T13:39:00;21.00;87.00
56046;DHT22;41913;51.030;3.706;2023-11-19T13:41:26;20.90;87.00
56046;DHT22;41913;51.030;3.706;2023-11-19T13:43:53;20.90;86.80
56046;DHT22;41913;51.030;3.706;2023-11-19T13:46:19;20.90;86.90
56046;DHT22;41913;51.030;3.706;2023-11-19T13:48:47;20.90;86.80
56046;DHT22;41913;51.030;3.706;2023-11-19T13:51:15;20.90;86.70
56046;DHT22;41913;51.030;3.706;2023-11-19T13:53:41;20.90;86.60
56046;DHT22;41913;51.030;3.706;2023-11-19T13:56:07;20.90;86.40
56046;DHT22;41913;51.030;3.706;2023-11-19T13:58:33;20.90;86.60
56046;DHT22;41913;51.030;3.706;2023-11-19T14:01:00;20.90;86.60
56046;DHT22;41913;51.030;3.706;2023-11-19T14:03:27;20.90;86.60
56046;DHT22;41913;51.030;3.706;2023-11-19T14:05:53;20.90;86.80
56046;DHT22;41913;51.030;3.706;2023-11-19T14:08:20;20.90;87.00
56046;DHT22;41913;51.030;3.706;2023-11-19T14:10:46;20.90;88.60
56046;DHT22;41913;51.030;3.706;2023-11-19T14:13:12;20.90;88.50
56046;DHT22;41913;51.030;3.706;2023-11-19T14:15:38;20.90;88.90
56046;DHT22;41913;51.030;3.706;2023-11-19T14:18:04;20.90;89.00
56046;DHT22;41913;51.030;3.706;2023-11-19T14:20:32;20.90;89.00
56046;DHT22;41913;51.030;3.706;2023-11-19T14:22:58;20.90;88.90
56046;DHT22;41913;51.030;3.706;2023-11-19T14:25:24;20.90;88.90
56046;DHT22;41913;51.030;3.706;2023-11-19T14:27:50;20.90;88.80
56046;DHT22;41913;51.030;3.706;2023-11-19T14:30:16;20.90;88.70
56046;DHT22;41913;51.030;3.706;2023-11-19T14:32:43;20.90;88.80
56046;DHT22;41913;51.030;3.706;2023-11-19T14:35:13;20.90;88.90
56046;DHT22;41913;51.030;3.706;2023-11-19T14:37:38;20.90;88.90
56046;DHT22;41913;51.030;3.706;2023-11-19T14:40:05;20.90;89.10
56046;DHT22;41913;51.030;3.706;2023-11-19T14:42:32;20.90;89.90
56046;DHT22;41913;51.030;3.706;2023-11-19T14:45:01;20.90;89.30
56046;DHT22;41913;51.030;3.706;2023-11-19T14:47:27;20.90;89.50
56046;DHT22;41913;51.030;3.706;2023-11-19T14:49:54;20.90;89.40
56046;DHT22;41913;51.030;3.706;2023-11-19T14:52:21;20.90;89.40
56046;DHT22;41913;51.030;3.706;2023-11-19T14:54:47;20.90;89.30
56046;DHT22;41913;51.030;3.706;2023-11-19T14:57:15;20.90;89.20
56046;DHT22;41913;51.030;3.706;2023-11-19T14:59:42;20.80;88.90
56046;DHT22;41913;51.030;3.706;2023-11-19T15:02:07;20.80;88.80
56046;DHT22;41913;51.030;3.706;2023-11-19T15:04:35;20.80;88.60
56046;DHT22;41913;51.030;3.706;2023-11-19T15:07:01;20.80;88.40
56046;DHT22;41913;51.030;3.706;2023-11-19T15:09:28;20.70;88.20
56046;DHT22;41913;51.030;3.706;2023-11-19T15:11:54;20.70;88.20
56046;DHT22;41913;51.030;3.706;2023-11-19T15:14:23;20.70;87.80
56046;DHT22;41913;51.030;3.706;2023-11-19T15:16:52;20.70;87.70
56046;DHT22;41913;51.030;3.706;2023-11-19T15:19:19;20.70;87.60
56046;DHT22;41913;51.030;3.706;2023-11-19T15:21:47;20.70;87.40
56046;DHT22;41913;51.030;3.706;2023-11-19T15:24:13;20.70;87.40
56046;DHT22;41913;51.030;3.706;2023-11-19T15:26:39;20.60;87.20
56046;DHT22;41913;51.030;3.706;2023-11-19T15:29:05;20.60;87.20
56046;DHT22;41913;51.030;3.706;2023-11-19T15:31:31;20.60;87.10
56046;DHT22;41913;51.030;3.706;2023-11-19T15:33:57;20.60;87.00
56046;DHT22;41913;51.030;3.706;2023-11-19T15:36:23;20.60;87.00
56046;DHT22;41913;51.030;3.706;2023-11-19T15:38:50;20.50;86.90
56046;DHT22;41913;51.030;3.706;2023-11-19T15:41:15;20.50;86.90
56046;DHT22;41913;51.030;3.706;2023-11-19T15:43:42;20.50;87.00
56046;DHT22;41913;51.030;3.706;2023-11-19T15:46:09;20.50;87.10